Terminal Aerodrome Forecast
Issued by NWS Northern Indiana

Home | Current Version | Previous Version | Text Only | Print | Product List | Glossary Off
Versions: 1 2 3 4 5 6 7 8 9 10 11 12 13 14

000
FTUS43 KIWX 250500
TAFFWA
TAF
KFWA 250534Z 2506/2606 25017G31KT P6SM -SHSN OVC025
     FM250900 25015G25KT P6SM OVC025
     FM251200 25012G18KT P6SM -SN BKN025
     FM251800 26012KT P6SM BKN035=

USA.gov is the U.S. government's official web portal to all federal, state and local government web resources and services.